Time;durP1;ratioP1;P1;durP2;ratioP2;P2;SDS_P1;SDS_P2;PMS_P1;PMS_P2;Temp;Humidity;BMP_temperature;BMP_pressure;BME280_temperature;BME280_humidity;BME280_pressure;Samples;Min_cycle;Max_cycle;Signal;HPM_P1;HPM_P2
2023/04/09 00:01:56;;;;;;;0.20;0.20;;;;;;;18.72;44.59;102131.81;5126550;27;20051;-47
2023/04/09 00:04:22;;;;;;;0.30;0.30;;;;;;;18.71;44.67;102129.31;5137760;27;20054;-48
2023/04/09 00:06:48;;;;;;;0.30;0.30;;;;;;;18.71;44.95;102126.56;5138077;27;20050;-48
2023/04/09 00:09:14;;;;;;;0.30;0.30;;;;;;;18.71;44.70;102123.81;5138341;27;20042;-47
2023/04/09 00:11:40;;;;;;;0.30;0.30;;;;;;;18.72;44.58;102119.94;5138032;27;20042;-47
2023/04/09 00:14:06;;;;;;;0.30;0.30;;;;;;;18.73;45.00;102124.38;5138022;27;20038;-47
2023/04/09 00:16:32;;;;;;;0.30;0.30;;;;;;;18.71;44.83;102130.16;5138059;27;20038;-48
2023/04/09 00:18:57;;;;;;;0.30;0.30;;;;;;;18.71;44.84;102126.56;5137853;27;20050;-49
2023/04/09 00:21:23;;;;;;;0.30;0.30;;;;;;;18.71;44.75;102127.41;5138046;27;20045;-47
2023/04/09 00:23:49;;;;;;;0.20;0.20;;;;;;;18.71;44.88;102129.31;5135367;27;20074;-47
2023/04/09 00:26:14;;;;;;;0.20;0.20;;;;;;;18.71;44.61;102126.56;5125879;27;20043;-48
2023/04/09 00:28:40;;;;;;;0.30;0.30;;;;;;;18.71;44.99;102132.91;5116512;28;20797;-48
2023/04/09 00:31:06;;;;;;;0.20;0.20;;;;;;;18.72;44.73;102120.78;5117175;28;20103;-47
2023/04/09 00:33:31;;;;;;;0.30;0.30;;;;;;;18.72;44.74;102125.47;5130442;27;20042;-48
2023/04/09 00:35:57;;;;;;;0.30;0.30;;;;;;;18.72;44.68;102119.94;5137245;27;20452;-47
2023/04/09 00:38:23;;;;;;;0.25;0.25;;;;;;;18.72;44.71;102122.72;5118514;27;20042;-47
2023/04/09 00:40:49;;;;;;;0.30;0.30;;;;;;;18.71;44.76;102121.88;5137567;27;20102;-49
2023/04/09 00:43:16;;;;;;;0.20;0.20;;;;;;;18.72;45.07;102128.22;5125983;27;20047;-49
2023/04/09 00:45:43;;;;;;;0.20;0.20;;;;;;;18.73;44.92;102118.84;5116298;27;20047;-48
2023/04/09 00:48:09;;;;;;;0.30;0.30;;;;;;;18.71;44.66;102119.13;5116880;28;20055;-47
2023/04/09 00:50:35;;;;;;;0.20;0.20;;;;;;;18.71;44.81;102119.13;5116616;27;20094;-47
2023/04/09 00:53:01;;;;;;;0.30;0.30;;;;;;;18.71;44.90;102123.81;5097935;28;20050;-48
2023/04/09 00:55:27;;;;;;;0.20;0.20;;;;;;;18.72;44.89;102117.19;5116162;27;20039;-49
2023/04/09 00:57:52;;;;;;;0.20;0.20;;;;;;;18.71;44.83;102119.13;5116315;28;20193;-47
2023/04/09 01:00:18;;;;;;;0.30;0.30;;;;;;;18.71;44.75;102127.41;5116614;28;20039;-48
2023/04/09 01:02:44;;;;;;;0.30;0.30;;;;;;;18.71;44.90;102123.81;5107143;27;20415;-48
2023/04/09 01:05:11;;;;;;;0.70;0.68;;;;;;;18.72;44.73;102125.47;5116206;27;20048;-47
2023/04/09 01:08:04;;;;;;;0.30;0.30;;;;;;;18.73;44.89;102129.91;5116360;28;20476;-47
2023/04/09 01:10:35;;;;;;;0.20;0.20;;;;;;;18.71;44.85;102127.41;5116346;28;20494;-48
2023/04/09 01:13:23;;;;;;;0.20;0.20;;;;;;;18.72;44.87;102128.22;5117420;27;20043;-48
2023/04/09 01:15:55;;;;;;;0.20;0.20;;;;;;;18.72;44.87;102125.47;5084033;28;20043;-47
2023/04/09 01:18:28;;;;;;;0.30;0.30;;;;;;;18.72;44.84;102123.53;5081376;28;20039;-49
2023/04/09 01:21:01;;;;;;;0.30;0.30;;;;;;;18.72;44.69;102125.47;5116748;28;20039;-49
2023/04/09 01:23:41;;;;;;;0.30;0.30;;;;;;;18.73;44.71;102121.63;5116918;27;20054;-48
2023/04/09 01:26:35;;;;;;;0.30;0.30;;;;;;;18.72;44.93;102125.47;5111975;27;20453;-49
2023/04/09 01:29:02;;;;;;;0.20;0.20;;;;;;;18.72;44.98;102133.75;5134274;27;20054;-49
2023/04/09 01:31:30;;;;;;;0.20;0.20;;;;;;;18.71;44.95;102124.63;5137309;27;20078;-49
2023/04/09 01:33:56;;;;;;;0.20;0.20;;;;;;;18.72;44.90;102120.78;5120419;27;20301;-48
2023/04/09 01:36:23;;;;;;;0.20;0.20;;;;;;;18.72;44.77;102118.03;5116313;28;20039;-47
2023/04/09 01:38:50;;;;;;;0.30;0.30;;;;;;;18.73;44.76;102116.09;5097307;28;20075;-48
2023/04/09 01:41:17;;;;;;;0.30;0.30;;;;;;;18.72;44.77;102119.94;5097646;28;20057;-47
2023/04/09 01:43:43;;;;;;;0.20;0.20;;;;;;;18.73;44.71;102116.09;5129959;27;20463;-49
2023/04/09 01:46:09;;;;;;;0.20;0.20;;;;;;;18.73;45.02;102116.94;5136988;27;20095;-47
2023/04/09 01:48:36;;;;;;;0.30;0.30;;;;;;;18.73;44.71;102110.59;5136914;27;20053;-48
2023/04/09 01:51:01;;;;;;;0.30;0.30;;;;;;;18.73;44.86;102113.34;5136363;27;20907;-48
2023/04/09 01:53:27;;;;;;;0.22;0.22;;;;;;;18.73;45.05;102111.41;5136659;27;20428;-46
2023/04/09 01:55:55;;;;;;;0.30;0.30;;;;;;;18.72;44.59;102108.91;5136569;27;20049;-49
2023/04/09 01:58:21;;;;;;;0.20;0.20;;;;;;;18.72;44.61;102109.75;5136105;27;20054;-49
2023/04/09 02:00:47;;;;;;;0.22;0.22;;;;;;;18.71;45.02;102102.56;5113662;27;20119;-48
2023/04/09 02:03:23;;;;;;;0.22;0.22;;;;;;;18.73;44.71;102108.66;5126510;27;20046;-48
2023/04/09 02:05:55;;;;;;;0.30;0.30;;;;;;;18.72;44.78;102100.63;5136163;27;20152;-49
2023/04/09 02:08:21;;;;;;;0.30;0.30;;;;;;;18.72;44.72;102100.63;5135823;27;20577;-49
2023/04/09 02:10:52;;;;;;;0.30;0.30;;;;;;;18.72;44.93;102101.47;5136034;27;20373;-50
2023/04/09 02:13:18;;;;;;;0.30;0.30;;;;;;;18.73;44.86;102110.59;5106123;28;20543;-47
2023/04/09 02:15:44;;;;;;;0.30;0.30;;;;;;;18.73;44.71;102110.59;5097055;28;20101;-47
2023/04/09 02:18:27;;;;;;;0.20;0.20;;;;;;;18.72;44.78;102107.00;5115035;28;20080;-47
2023/04/09 02:20:54;;;;;;;0.20;0.20;;;;;;;18.73;44.73;102105.06;5096748;28;20066;-48
2023/04/09 02:23:20;;;;;;;0.30;0.30;;;;;;;18.73;44.86;102107.81;5097016;28;20598;-48
2023/04/09 02:25:46;;;;;;;0.30;0.30;;;;;;;18.73;44.81;102102.31;5119623;27;20035;-47
2023/04/09 02:28:12;;;;;;;0.30;0.30;;;;;;;18.73;44.63;102105.06;5116887;27;20039;-48
2023/04/09 02:30:37;;;;;;;0.30;0.30;;;;;;;18.73;44.71;102105.06;5135377;27;20054;-49
2023/04/09 02:33:03;;;;;;;0.20;0.20;;;;;;;18.73;44.82;102105.06;5136093;27;20064;-46
2023/04/09 02:35:29;;;;;;;0.30;0.30;;;;;;;18.72;44.68;102107.00;5117753;27;20116;-47
2023/04/09 02:37:55;;;;;;;0.20;0.20;;;;;;;18.73;44.91;102096.78;5136285;27;20047;-47
2023/04/09 02:40:21;;;;;;;0.30;0.30;;;;;;;18.72;44.96;102095.94;5135727;27;20466;-48
2023/04/09 02:42:46;;;;;;;0.20;0.20;;;;;;;18.71;44.90;102086.00;5135812;27;20517;-49
2023/04/09 02:45:12;;;;;;;0.30;0.30;;;;;;;18.72;44.89;102093.19;5117281;27;20047;-49
2023/04/09 02:47:38;;;;;;;0.22;0.22;;;;;;;18.73;44.97;102089.34;5135941;27;20042;-48
2023/04/09 02:50:04;;;;;;;0.30;0.30;;;;;;;18.73;44.67;102086.56;5135716;27;20536;-49
2023/04/09 02:52:30;;;;;;;0.30;0.30;;;;;;;18.73;44.88;102080.22;5130823;27;20050;-47
2023/04/09 02:54:56;;;;;;;0.30;0.30;;;;;;;18.73;44.83;102074.72;5115168;27;20119;-47
2023/04/09 02:57:21;;;;;;;0.28;0.28;;;;;;;18.73;44.64;102077.47;5115939;28;20039;-48
2023/04/09 02:59:47;;;;;;;0.20;0.20;;;;;;;18.73;44.93;102075.53;5096279;28;20051;-48
2023/04/09 03:02:13;;;;;;;0.30;0.30;;;;;;;18.73;44.80;102077.47;5116847;27;20039;-50
2023/04/09 03:04:39;;;;;;;0.20;0.20;;;;;;;18.72;44.74;102079.41;5135357;27;20070;-48
2023/04/09 03:07:04;;;;;;;0.30;0.30;;;;;;;18.72;44.72;102079.41;5117716;27;20038;-48
2023/04/09 03:09:30;;;;;;;0.30;0.30;;;;;;;18.73;44.68;102074.72;5135853;27;20185;-48
2023/04/09 03:11:56;;;;;;;0.30;0.30;;;;;;;18.74;44.87;102070.88;5117197;27;20053;-49
2023/04/09 03:14:23;;;;;;;0.20;0.20;;;;;;;18.73;45.03;102071.94;5115939;28;20043;-48
2023/04/09 03:16:48;;;;;;;0.20;0.20;;;;;;;18.73;44.95;102071.94;5118560;27;20511;-48
2023/04/09 03:19:14;;;;;;;0.25;0.25;;;;;;;18.73;44.58;102066.44;5118645;27;20139;-47
2023/04/09 03:21:40;;;;;;;0.22;0.22;;;;;;;18.73;44.76;102063.66;5117972;28;20056;-48
2023/04/09 03:24:05;;;;;;;0.30;0.30;;;;;;;18.72;44.98;102071.13;5136339;27;20043;-47
2023/04/09 03:26:35;;;;;;;0.20;0.20;;;;;;;18.73;44.80;102055.38;5138816;27;20425;-49
2023/04/09 03:29:02;;;;;;;0.20;0.20;;;;;;;18.73;44.92;102058.97;5126869;27;20042;-48
2023/04/09 03:31:27;;;;;;;0.20;0.20;;;;;;;18.73;44.95;102055.38;5138049;27;20092;-50
2023/04/09 03:33:53;;;;;;;0.30;0.30;;;;;;;18.73;44.80;102056.22;5138557;27;20038;-49
2023/04/09 03:36:19;;;;;;;0.20;0.20;;;;;;;18.73;44.77;102049.88;5138604;27;20453;-48
2023/04/09 03:38:44;;;;;;;0.30;0.30;;;;;;;18.73;44.77;102058.16;5139166;27;20053;-50
2023/04/09 03:41:10;;;;;;;0.20;0.20;;;;;;;18.72;44.89;102054.56;5138251;27;20085;-49
2023/04/09 03:43:36;;;;;;;0.20;0.20;;;;;;;18.73;44.65;102049.88;5138508;27;20047;-47
2023/04/09 03:46:10;;;;;;;0.30;0.30;;;;;;;18.73;44.63;102058.16;5138344;27;20059;-48
2023/04/09 03:48:36;;;;;;;0.20;0.20;;;;;;;18.73;44.63;102050.69;5120404;27;20309;-48
2023/04/09 03:51:02;;;;;;;0.30;0.30;;;;;;;18.73;44.91;102052.63;5138396;27;20254;-47
2023/04/09 03:53:27;;;;;;;0.30;0.30;;;;;;;18.73;44.75;102055.38;5138319;27;20047;-49
2023/04/09 03:55:53;;;;;;;0.20;0.20;;;;;;;18.72;44.91;102059.25;5138683;27;20312;-49
2023/04/09 03:58:19;;;;;;;0.20;0.20;;;;;;;18.73;44.76;102056.22;5120010;27;20068;-50
2023/04/09 04:00:44;;;;;;;0.20;0.20;;;;;;;18.72;44.69;102057.31;5138790;27;20038;-48
2023/04/09 04:03:10;;;;;;;0.20;0.20;;;;;;;18.74;44.62;102059.84;5138323;27;20133;-49
2023/04/09 04:05:36;;;;;;;0.20;0.20;;;;;;;18.73;44.69;102063.66;5119892;27;20053;-49
2023/04/09 04:08:02;;;;;;;0.20;0.20;;;;;;;18.73;44.76;102058.97;5138427;27;20055;-49
2023/04/09 04:10:28;;;;;;;0.30;0.30;;;;;;;18.73;44.72;102060.91;5138616;27;20043;-48
2023/04/09 04:12:53;;;;;;;0.20;0.20;;;;;;;18.73;44.90;102060.91;5137886;27;20131;-48
2023/04/09 04:15:19;;;;;;;0.20;0.20;;;;;;;18.73;44.87;102056.22;5137752;27;20118;-49
2023/04/09 04:17:45;;;;;;;0.30;0.30;;;;;;;18.73;44.66;102058.16;5137853;27;20049;-49
2023/04/09 04:20:10;;;;;;;0.30;0.30;;;;;;;18.73;44.76;102053.47;5138312;27;20046;-48
2023/04/09 04:22:36;;;;;;;0.20;0.20;;;;;;;18.73;44.56;102055.38;5137823;27;20078;-47
2023/04/09 04:25:03;;;;;;;0.20;0.20;;;;;;;18.73;45.01;102064.50;5126046;27;20051;-50
2023/04/09 04:27:28;;;;;;;0.20;0.20;;;;;;;18.73;45.00;102060.91;5117313;28;20043;-47
2023/04/09 04:29:57;;;;;;;0.20;0.20;;;;;;;18.73;44.89;102055.38;5125740;27;20047;-48
2023/04/09 04:32:22;;;;;;;;;;;;;;;18.73;44.71;102061.75;5137151;27;20058;-47
2023/04/09 04:34:49;;;;;;;0.20;0.20;;;;;;;18.72;44.85;102062.00;5137683;27;19919;-48
2023/04/09 04:37:14;;;;;;;0.30;0.30;;;;;;;18.73;44.76;102066.44;5119376;27;20210;-48
2023/04/09 04:39:40;;;;;;;0.20;0.20;;;;;;;18.73;45.01;102066.44;5118645;27;20039;-48
2023/04/09 04:42:06;;;;;;;0.20;0.20;;;;;;;18.73;45.24;102071.94;5137699;27;20469;-50
2023/04/09 04:44:31;;;;;;;0.20;0.20;;;;;;;18.73;44.75;102074.72;5137070;27;20043;-48
2023/04/09 04:46:57;;;;;;;0.20;0.20;;;;;;;18.73;44.89;102072.78;5137517;27;20043;-48
2023/04/09 04:49:23;;;;;;;0.20;0.20;;;;;;;18.73;44.68;102070.03;5136797;27;20278;-47
2023/04/09 04:51:48;;;;;;;0.20;0.20;;;;;;;18.74;44.93;102068.13;5136999;27;20448;-47
2023/04/09 04:54:14;;;;;;;0.30;0.30;;;;;;;18.75;44.66;102072.56;5137392;27;20042;-48
2023/04/09 04:56:40;;;;;;;0.20;0.20;;;;;;;18.73;44.61;102075.53;5118845;27;20519;-47
2023/04/09 04:59:05;;;;;;;0.30;0.30;;;;;;;18.73;44.58;102081.06;5137409;27;20075;-49
2023/04/09 05:01:31;;;;;;;0.30;0.30;;;;;;;18.74;44.67;102070.88;5125280;27;20050;-49
2023/04/09 05:03:57;;;;;;;0.30;0.30;;;;;;;18.74;44.70;102076.41;5120719;27;20509;-48
2023/04/09 05:06:22;;;;;;;0.20;0.20;;;;;;;18.74;44.65;102077.22;5116791;28;20302;-49
2023/04/09 05:08:48;;;;;;;0.20;0.20;;;;;;;18.73;44.83;102083.81;5116491;28;20047;-48
2023/04/09 05:11:15;;;;;;;0.20;0.20;;;;;;;18.74;44.74;102073.66;5116192;28;20057;-48
2023/04/09 05:13:41;;;;;;;0.20;0.20;;;;;;;18.73;44.64;102080.22;5116996;27;20504;-50
2023/04/09 05:16:07;;;;;;;0.30;0.30;;;;;;;18.73;44.64;102083.81;5115872;27;20445;-48
2023/04/09 05:18:32;;;;;;;0.43;0.43;;;;;;;18.74;44.83;102082.75;5115942;28;20426;-50
2023/04/09 05:20:58;;;;;;;0.28;0.28;;;;;;;18.74;44.76;102081.94;5116049;28;20367;-48
2023/04/09 05:23:24;;;;;;;0.20;0.20;;;;;;;18.73;44.61;102081.06;5116454;27;20491;-47
2023/04/09 05:25:50;;;;;;;0.28;0.28;;;;;;;18.73;44.74;102078.31;5115809;27;20047;-47
2023/04/09 05:28:15;;;;;;;0.20;0.20;;;;;;;18.74;44.71;102073.66;5116060;27;20380;-52
2023/04/09 05:30:45;;;;;;;0.20;0.20;;;;;;;18.74;44.57;102074.47;5117667;27;20051;-50
2023/04/09 05:33:11;;;;;;;0.20;0.20;;;;;;;18.74;44.67;102079.16;5125901;27;20643;-48
2023/04/09 05:35:38;;;;;;;0.20;0.20;;;;;;;18.74;44.67;102079.16;5133471;27;20045;-48
2023/04/09 05:38:03;;;;;;;0.25;0.25;;;;;;;18.75;44.99;102072.56;5135068;27;20046;-50
2023/04/09 05:40:29;;;;;;;0.30;0.30;;;;;;;18.74;44.57;102080.00;5136233;27;20529;-48
2023/04/09 05:42:55;;;;;;;0.20;0.20;;;;;;;18.74;44.66;102070.88;5128548;27;20044;-48
2023/04/09 05:45:21;;;;;;;0.20;0.20;;;;;;;18.74;44.64;102071.72;5115812;27;20265;-49
2023/04/09 05:47:46;;;;;;;0.20;0.20;;;;;;;18.73;44.87;102072.78;5115822;28;20043;-48
2023/04/09 05:50:13;;;;;;;0.20;0.20;;;;;;;18.74;44.71;102074.47;5126551;27;20398;-47
2023/04/09 05:52:38;;;;;;;0.20;0.20;;;;;;;18.73;45.06;102075.53;5107774;27;20053;-50
2023/04/09 05:55:05;;;;;;;0.20;0.20;;;;;;;18.74;44.56;102073.66;5136620;27;20047;-48
2023/04/09 05:57:31;;;;;;;0.20;0.20;;;;;;;18.75;44.56;102072.56;5117753;27;20489;-47
2023/04/09 05:59:57;;;;;;;0.22;0.22;;;;;;;18.74;44.83;102074.47;5135911;27;20051;-48
2023/04/09 06:02:23;;;;;;;0.20;0.20;;;;;;;18.73;44.64;102070.03;5136171;27;20047;-49
2023/04/09 06:04:50;;;;;;;0.20;0.20;;;;;;;18.74;44.92;102076.41;5136651;27;20043;-49
2023/04/09 06:07:16;;;;;;;0.20;0.20;;;;;;;18.73;44.93;102067.25;5118112;27;20046;-48
2023/04/09 06:09:43;;;;;;;0.20;0.20;;;;;;;18.74;44.77;102073.66;5136358;27;20070;-47
2023/04/09 06:12:09;;;;;;;0.20;0.20;;;;;;;18.73;44.90;102070.03;5136256;27;20050;-48
2023/04/09 06:14:35;;;;;;;0.20;0.20;;;;;;;18.74;44.94;102081.94;5136561;27;20444;-51
2023/04/09 06:17:01;;;;;;;0.20;0.20;;;;;;;18.73;44.64;102069.19;5136845;27;20243;-47
2023/04/09 06:19:26;;;;;;;0.20;0.20;;;;;;;18.74;44.89;102076.41;5136361;27;20668;-49
2023/04/09 06:21:52;;;;;;;0.20;0.20;;;;;;;18.73;44.83;102081.06;5136226;27;20054;-48
2023/04/09 06:24:18;;;;;;;0.20;0.20;;;;;;;18.75;44.93;102083.59;5136321;27;20276;-48
2023/04/09 06:26:43;;;;;;;0.30;0.30;;;;;;;18.74;44.51;102079.16;5136662;27;20403;-47
2023/04/09 06:29:09;;;;;;;0.20;0.20;;;;;;;18.73;44.62;102080.22;5135968;27;20047;-49
2023/04/09 06:31:34;;;;;;;0.20;0.20;;;;;;;18.74;44.65;102081.94;5135917;27;20482;-48
2023/04/09 06:34:00;;;;;;;0.20;0.20;;;;;;;18.73;44.79;102081.06;5135178;27;20069;-49
2023/04/09 06:36:26;;;;;;;0.20;0.20;;;;;;;18.74;44.91;102090.19;5136169;27;20055;-50
2023/04/09 06:38:52;;;;;;;0.20;0.20;;;;;;;18.74;44.95;102088.28;5117563;27;20051;-50
2023/04/09 06:41:20;;;;;;;0.20;0.20;;;;;;;18.74;44.75;102088.28;5136126;27;20050;-47
2023/04/09 06:43:46;;;;;;;0.30;0.30;;;;;;;18.74;44.71;102084.69;5135931;27;20502;-49
2023/04/09 06:46:13;;;;;;;0.20;0.20;;;;;;;18.74;45.03;102081.94;5136200;27;20285;-48
2023/04/09 06:48:41;;;;;;;0.20;0.20;;;;;;;18.74;44.87;102090.19;5139566;27;20074;-47
2023/04/09 06:51:06;;;;;;;0.20;0.20;;;;;;;18.74;44.83;102101.25;5136100;27;20047;-48
2023/04/09 06:53:32;;;;;;;0.20;0.20;;;;;;;18.74;44.57;102095.72;5139035;27;20567;-48
2023/04/09 06:55:58;;;;;;;0.20;0.20;;;;;;;18.74;44.57;102099.31;5139016;27;20043;-48
2023/04/09 06:58:23;;;;;;;0.20;0.20;;;;;;;18.74;44.96;102101.25;5139851;27;20486;-49
2023/04/09 07:00:49;;;;;;;0.20;0.20;;;;;;;18.74;44.76;102109.53;5135245;27;20166;-49
2023/04/09 07:03:15;;;;;;;0.20;0.20;;;;;;;18.74;44.96;102109.53;5128861;27;20057;-49
2023/04/09 07:05:41;;;;;;;0.20;0.20;;;;;;;18.74;44.71;102102.06;5138971;27;20486;-49
2023/04/09 07:08:06;;;;;;;0.20;0.20;;;;;;;18.73;44.61;102097.63;5139092;27;20050;-49
2023/04/09 07:10:32;;;;;;;0.20;0.20;;;;;;;18.74;44.81;102098.47;5139206;27;20042;-47
2023/04/09 07:12:58;;;;;;;0.20;0.20;;;;;;;18.75;44.64;102100.16;5138855;27;20054;-47
2023/04/09 07:15:23;;;;;;;0.20;0.20;;;;;;;18.74;44.77;102098.47;5138568;27;20051;-50
2023/04/09 07:17:49;;;;;;;0.28;0.28;;;;;;;18.74;44.59;102098.47;5139363;27;20398;-47
2023/04/09 07:20:15;;;;;;;0.20;0.20;;;;;;;18.75;44.73;102102.91;5138881;27;20099;-49
2023/04/09 07:22:41;;;;;;;0.20;0.20;;;;;;;18.75;44.72;102097.38;5138888;27;20050;-48
2023/04/09 07:25:07;;;;;;;0.20;0.20;;;;;;;18.74;44.69;102099.31;5131286;27;20039;-46
2023/04/09 07:27:32;;;;;;;0.20;0.20;;;;;;;18.73;44.93;102100.38;5139136;27;20193;-48
2023/04/09 07:29:58;;;;;;;0.20;0.20;;;;;;;18.73;44.72;102100.38;5139413;27;20450;-47
2023/04/09 07:32:26;;;;;;;0.20;0.20;;;;;;;18.73;44.70;102103.13;5138367;27;20046;-50
2023/04/09 07:34:53;;;;;;;0.20;0.20;;;;;;;18.73;44.80;102100.38;5106509;27;20096;-48
2023/04/09 07:37:19;;;;;;;0.22;0.22;;;;;;;18.74;44.76;102112.28;5120407;27;20077;-49
2023/04/09 07:39:46;;;;;;;0.22;0.22;;;;;;;18.74;44.92;102104.00;5136642;27;20085;-48
2023/04/09 07:42:12;;;;;;;0.20;0.20;;;;;;;18.74;44.56;102109.53;5135623;27;20111;-47
2023/04/09 07:44:38;;;;;;;0.25;0.25;;;;;;;18.73;44.63;102105.91;5082550;28;20039;-47
2023/04/09 07:47:05;;;;;;;0.20;0.20;;;;;;;18.73;44.87;102100.38;5118065;28;20054;-47
2023/04/09 07:49:31;;;;;;;0.20;0.20;;;;;;;18.73;44.61;102108.66;5118470;28;20548;-50
2023/04/09 07:51:58;;;;;;;0.20;0.20;;;;;;;18.74;44.80;102101.25;5099182;28;20561;-49
2023/04/09 07:54:24;;;;;;;0.20;0.20;;;;;;;18.74;44.59;102109.53;5119292;27;20050;-49
2023/04/09 07:56:50;;;;;;;0.22;0.22;;;;;;;18.73;44.76;102114.16;5138760;27;20218;-50
2023/04/09 07:59:15;;;;;;;0.30;0.30;;;;;;;18.74;44.85;102110.34;5138264;27;20072;-48
2023/04/09 08:01:41;;;;;;;0.20;0.20;;;;;;;18.74;44.63;102110.34;5116103;28;20540;-47
2023/04/09 08:04:08;;;;;;;0.20;0.20;;;;;;;18.73;44.63;102105.06;5116856;27;20042;-49
2023/04/09 08:06:35;;;;;;;0.30;0.30;;;;;;;18.74;44.73;102113.13;5119750;27;20110;-48
2023/04/09 08:09:01;;;;;;;0.30;0.30;;;;;;;18.74;44.72;102110.34;5119976;27;20307;-48
2023/04/09 08:11:27;;;;;;;0.20;0.20;;;;;;;18.74;44.72;102107.59;5138596;27;20562;-48
2023/04/09 08:13:53;;;;;;;0.35;0.35;;;;;;;18.73;44.64;102111.41;5119147;27;20047;-49
2023/04/09 08:16:20;;;;;;;0.20;0.20;;;;;;;18.74;44.62;102112.28;5119096;27;20047;-47
2023/04/09 08:18:46;;;;;;;0.20;0.20;;;;;;;18.74;44.80;102115.88;5137850;27;20071;-47
2023/04/09 08:21:12;;;;;;;0.30;0.30;;;;;;;18.74;44.58;102113.13;5137903;27;20043;-49
2023/04/09 08:23:37;;;;;;;0.20;0.20;;;;;;;18.74;44.64;102115.88;5118894;27;20110;-49
2023/04/09 08:26:03;;;;;;;0.20;0.20;;;;;;;18.75;45.01;102116.69;5137762;27;20248;-47
2023/04/09 08:28:29;;;;;;;0.20;0.20;;;;;;;18.75;44.59;102113.94;5137349;27;20050;-47
2023/04/09 08:30:55;;;;;;;0.20;0.20;;;;;;;18.75;44.57;102113.94;5137571;27;20046;-48
2023/04/09 08:33:20;;;;;;;0.20;0.20;;;;;;;18.74;44.70;102106.75;5137672;27;20047;-47
2023/04/09 08:35:46;;;;;;;0.20;0.20;;;;;;;18.74;44.89;102115.03;5137479;27;20039;-49
2023/04/09 08:38:12;;;;;;;0.20;0.20;;;;;;;18.74;44.66;102115.03;5136890;27;20079;-47
2023/04/09 08:40:38;;;;;;;0.20;0.20;;;;;;;18.74;44.58;102115.88;5126723;27;20050;-47
2023/04/09 08:43:06;;;;;;;0.20;0.20;;;;;;;18.74;44.82;102112.28;5137672;27;20524;-48
2023/04/09 08:45:31;;;;;;;0.20;0.20;;;;;;;18.74;44.93;102112.28;5118663;27;20070;-47
2023/04/09 08:47:58;;;;;;;0.20;0.20;;;;;;;18.74;44.74;102115.88;5137355;27;20046;-48
2023/04/09 08:50:25;;;;;;;0.20;0.20;;;;;;;18.75;44.80;102123.06;5137374;27;20058;-47
2023/04/09 08:52:51;;;;;;;0.20;0.20;;;;;;;18.75;44.83;102116.69;5137362;27;20039;-48
2023/04/09 08:55:17;;;;;;;0.20;0.20;;;;;;;18.74;44.84;102115.88;5136886;27;20051;-48
2023/04/09 08:57:43;;;;;;;0.20;0.20;;;;;;;18.74;44.80;102121.41;5137644;27;20413;-49
2023/04/09 09:00:09;;;;;;;0.20;0.20;;;;;;;18.74;44.57;102107.59;5137589;27;20043;-50
2023/04/09 09:02:35;;;;;;;0.20;0.20;;;;;;;18.73;44.59;102113.34;5115474;27;20066;-50
2023/04/09 09:05:01;;;;;;;0.47;0.47;;;;;;;18.74;44.95;102110.34;5098292;28;20062;-50
2023/04/09 09:07:28;;;;;;;0.20;0.20;;;;;;;18.74;44.80;102110.34;5116582;28;20039;-47
2023/04/09 09:09:58;;;;;;;0.20;0.20;;;;;;;18.74;44.79;102107.59;5097812;27;20074;-48
2023/04/09 09:12:39;;;;;;;0.20;0.20;;;;;;;18.75;44.78;102111.19;5115769;27;20487;-48
2023/04/09 09:15:25;;;;;;;0.20;0.20;;;;;;;18.74;44.72;102101.25;5116437;27;20047;-47
2023/04/09 09:17:55;;;;;;;0.30;0.30;;;;;;;18.75;44.64;102108.44;5098181;28;20043;-50
2023/04/09 09:20:21;;;;;;;0.20;0.20;;;;;;;18.74;44.95;102107.59;5097852;28;20095;-48
2023/04/09 09:22:50;;;;;;;0.40;0.40;;;;;;;18.74;44.55;102104.84;5080986;28;20466;-47
2023/04/09 09:25:24;;;;;;;0.30;0.30;;;;;;;18.74;44.69;102096.56;5130076;27;20058;-48
2023/04/09 09:27:51;;;;;;;0.20;0.20;;;;;;;18.74;44.57;102091.03;5118998;27;20050;-47
2023/04/09 09:30:21;;;;;;;0.30;0.30;;;;;;;18.74;44.91;102084.69;5136758;27;20441;-48
2023/04/09 09:32:51;;;;;;;0.20;0.20;;;;;;;18.74;44.84;102090.19;5118107;27;20096;-47
2023/04/09 09:35:16;;;;;;;0.30;0.30;;;;;;;18.74;44.92;102090.19;5137166;27;20043;-50
2023/04/09 09:37:42;;;;;;;0.20;0.20;;;;;;;18.75;44.85;102089.09;5136583;27;20403;-48
2023/04/09 09:40:08;;;;;;;0.20;0.20;;;;;;;18.74;44.56;102088.28;5136453;27;20051;-48
2023/04/09 09:42:34;;;;;;;0.20;0.20;;;;;;;18.74;44.81;102087.44;5131449;27;20502;-47
2023/04/09 09:45:01;;;;;;;0.30;0.30;;;;;;;18.74;44.84;102090.19;5116476;27;20104;-47
2023/04/09 09:47:28;;;;;;;0.20;0.20;;;;;;;18.74;44.90;102081.94;5116293;28;20115;-48
2023/04/09 09:49:54;;;;;;;0.20;0.20;;;;;;;18.74;44.82;102077.22;5116217;28;20046;-47
2023/04/09 09:52:25;;;;;;;0.25;0.25;;;;;;;18.75;44.61;102080.81;5097355;27;20418;-47
2023/04/09 09:54:52;;;;;;;0.20;0.20;;;;;;;18.76;44.62;102085.25;5097975;28;20051;-46
2023/04/09 09:57:21;;;;;;;0.20;0.20;;;;;;;18.74;44.79;102077.22;5126934;27;20042;-48
2023/04/09 09:59:51;;;;;;;0.20;0.20;;;;;;;18.74;44.72;102073.66;5135373;27;20050;-48
2023/04/09 10:02:19;;;;;;;0.30;0.30;;;;;;;18.75;44.91;102064.28;5122147;27;20049;-49
2023/04/09 10:04:47;;;;;;;0.20;0.20;;;;;;;18.74;44.65;102063.44;5118286;27;20129;-48
2023/04/09 10:07:14;;;;;;;0.20;0.20;;;;;;;18.75;44.88;102073.38;5136794;27;20571;-47
2023/04/09 10:09:42;;;;;;;0.22;0.22;;;;;;;18.74;44.61;102062.59;5136529;27;20498;-48
2023/04/09 10:12:08;;;;;;;0.20;0.20;;;;;;;18.75;44.71;102061.50;5117786;27;20078;-47
2023/04/09 10:14:34;;;;;;;0.20;0.20;;;;;;;18.74;44.59;102049.63;5117598;27;20067;-47
2023/04/09 10:17:02;;;;;;;0.20;0.20;;;;;;;18.74;44.75;102055.16;5137081;27;20074;-47
2023/04/09 10:19:30;;;;;;;0.20;0.20;;;;;;;18.75;44.74;102054.06;5136529;27;20046;-49
2023/04/09 10:24:36;;;;;;;0.30;0.30;;;;;;;18.74;44.80;102057.91;5175542;27;20128;-46
2023/04/09 10:27:10;;;;;;;0.20;0.20;;;;;;;18.74;44.61;102057.09;5153412;27;20485;-48
2023/04/09 10:29:45;;;;;;;0.22;0.22;;;;;;;18.74;44.89;102052.41;5153258;27;20089;-47
2023/04/09 10:32:11;;;;;;;0.20;0.20;;;;;;;18.74;44.76;102068.97;5141537;27;20047;-45
2023/04/09 10:34:40;;;;;;;0.20;0.20;;;;;;;18.75;44.88;102058.75;5132331;27;20074;-48
2023/04/09 10:37:08;;;;;;;0.20;0.20;;;;;;;18.74;44.81;102060.69;5114469;27;20050;-47
2023/04/09 10:39:39;;;;;;;0.28;0.28;;;;;;;18.75;44.84;102058.75;5113993;27;20078;-48
2023/04/09 10:42:12;;;;;;;0.20;0.20;;;;;;;18.74;44.50;102051.56;5117801;27;20511;-49
2023/04/09 10:44:40;;;;;;;0.30;0.30;;;;;;;18.74;44.65;102049.63;5113995;27;20130;-48
2023/04/09 10:47:07;;;;;;;0.20;0.20;;;;;;;18.74;44.71;102044.13;5114330;27;20043;-46
2023/04/09 10:49:39;;;;;;;0.20;0.20;;;;;;;18.74;44.85;102035.84;5113814;27;20047;-46
2023/04/09 10:52:09;;;;;;;0.30;0.30;;;;;;;18.75;44.52;102043.03;5113555;27;20046;-47
2023/04/09 10:54:42;;;;;;;0.20;0.20;;;;;;;18.74;44.71;102044.13;5114409;27;20047;-46
2023/04/09 10:57:12;;;;;;;0.20;0.20;;;;;;;18.74;44.57;102033.09;5114435;27;20078;-45
2023/04/09 10:59:40;;;;;;;0.30;0.30;;;;;;;18.74;44.65;102038.59;5131906;27;20062;-45
2023/04/09 11:02:07;;;;;;;0.20;0.20;;;;;;;18.74;44.76;102035.00;5096332;27;20491;-45
2023/04/09 11:05:00;;;;;;;0.20;0.20;;;;;;;18.74;44.63;102030.31;5109955;28;20539;-46
2023/04/09 11:07:28;;;;;;;0.30;0.30;;;;;;;18.75;44.55;102040.25;5110998;28;20044;-48
2023/04/09 11:09:54;;;;;;;0.20;0.20;;;;;;;18.74;44.63;102035.84;5111982;27;20104;-46
2023/04/09 11:12:19;;;;;;;0.30;0.30;;;;;;;18.75;44.72;102031.16;5114077;27;20441;-45
2023/04/09 11:14:45;;;;;;;0.20;0.20;;;;;;;18.74;44.78;102030.31;5132473;27;20279;-47
2023/04/09 11:17:11;;;;;;;0.30;0.30;;;;;;;18.74;44.50;102026.72;5132243;27;20043;-47
2023/04/09 11:19:37;;;;;;;0.20;0.20;;;;;;;18.75;44.93;102026.47;5096940;27;20411;-46
2023/04/09 11:22:05;;;;;;;0.30;0.30;;;;;;;18.75;44.81;102017.34;5131625;27;20058;-49
2023/04/09 11:24:46;;;;;;;0.20;0.20;;;;;;;18.75;44.71;102017.34;5097770;27;20090;-46
2023/04/09 11:27:12;;;;;;;0.30;0.30;;;;;;;18.74;44.83;102002.72;5131739;27;20553;-48